My Meet Scores
Emily Conway, Gym Kinetics Gymnastics - MyMeetScores.com
Top100 | Top Teams | Upcoming Meets | Completed Meets | Latest | Add Scores | Help| Support | Bookmark and Share

Emily Conway, Gym Kinetics Gymnastics
Personal Bests
LevelVault BarsBeamFloorAA
49.4759.400 9.3009.30036.925
59.4009.475 9.2009.00036.950
68.8009.075 9.1008.67535.100
79.3509.550 8.8259.20036.200
Meet Scores
Date Meet Team Session Level Division Vault Bars Beam Floor AA
2012-03-16 2012 Illinois Level 6, 7 State Championships Gym Kinetics Gymnastics 8 7 Jr.A 9.350 10 9.550 1T 8.250 19 8.975 9T 36.125 11
2012-02-25 Midwest Open 2012 Flipstar Gymnastics Academy 7B 7 Lvl 7: 12 9.200 10 8.575 14 8.050 19 9.075 11 34.900 16
2012-02-10 IGI Chicago Style Gymnastics Gym Kinetics Gymnastics 133 7 12 Yr Olds 8.825 17 7.850 10 8.825 10 8.450 15 33.950 13
2012-01-20 Sand Dollar/ Whitlow Invitational Flipstar Gymnastics Academy D08 7 Sr A 9.100 4T 9.225 3 8.675 4 9.200 3T 36.200 4
2012-01-06 2012 St. Jude Invite Flipstar Gymnastics Academy 2 7 Junior 9.100 7 8.400 7 8.700 8 8.400 14 34.600 9
2011-12-15 2011 Hawaiian Pineapple Classic Flipstar Gymnastics Academy 6A 7 12 8.925 12 9.200 1 6.600 13 8.675 9 33.400 11
2011-11-18 2011 Thanksgiving Classic Gym Kinetics Gymnastics 1 7 Sr 12+ yrs 8.750 16 8.775 9 7.850 16T 8.550 17 33.925 13
2011-03-25 2011 Illinois Level 6-9-10 State Meet Flipstar Gymnastics Academy 3 6 Jr.C 8.700 24 8.675 12 9.100 5 8.175 23 34.650 20
2011-03-04 Elgin Invite Flipstar Gymnastics Academy 6 6 11 8.425 8 9.075 2 8.875 4 8.425 12 34.800 5
2011-02-19 Big Dream Classic Gym Kinetics Gymnastics 5A 6 11 yrs 8.800 8T 8.725 3 8.900 8 8.675 7 35.100 6
2011-02-11 IGI Chicago Style Gymnastics Meet Gym Kinetics Gymnastics 531 6 11 Yr Olds 8.500 15T 9.000 6T 8.400 18T 8.275 21 34.175 15
2011-01-21 Bravo Classic Flipstar Gymnastics Academy 5B 6 11-12 8.800 23 8.725 7 8.200 22 8.525 19 34.250 16
2010-12-03 Make a Wish Gym Kinetics Gymnastics 8 6 11 8.525 14 8.450 10 8.000 17 8.350 15 33.325 16
2010-04-23 2010 Illinois Level 5 State Championships Gym Kinetics Gymnastics 5 Jr.B 9.400 8 9.475 2 9.075 11 9.000 13 36.950 3
2010-02-20 BIG Dream Classic 2010 Flipstar Gymnastics Academy 3B 5 10 8.750 9 9.425 3 9.200 12 8.950 10 36.325 5
2010-02-12 IGI Chicago Style Gymnastics Meet Flipstar Gymnastics Academy 633 5 10 Yr Olds 8.150 16 8.150 8T 8.800 10 8.675 9 33.775 9
2010-01-29 Wisconsin Dells Gymnastics Vacation Classic Flipstar Gymnastics Academy 5C,5D 5 10 8.100 15T 8.825 6 8.975 6 8.325 18 34.225 10
2010-01-09 Crossroads Classic 2010 Flipstar Gymnastics Academy All Sessions Combined 5 Jr B 8.350 5T 9.100 3 8.875 3 8.500 5 34.825 2T
2009-12-04 Ultimate Wish Classic Flipstar Gymnastics Academy 8 5 Ch9-11 8.350 17T 9.000 12 7.650 42T 8.775 27T 33.775 26
2009-11-13 2009 North Judges Cup Gym Kinetics Sports Complex 3A 5 10 8.400 5 8.875 2 8.800 2 8.800 2 34.875 1
2009-03-13 2009 Illinois Level 4 State Championships Gym-Kinetics 4 JrD 9.475 7 9.400 2 9.050 3 9.000 8 36.925 5
2009-03-07 Midwest Open 2009 Gym Kinetics Sports Complex 2A 4 9 9.075 7 9.200 6 9.300 3 9.275 3 36.850 3
2009-02-06 IGI Chicago Style Gymnastics Meet Gym Kinetics Gymnastics 121 4 9 Yr Olds 8.650 16T 9.325 2T 9.125 3 9.150 4T 36.250 3T
2009-01-23 2009 Bravo Classic Gym Kinetics Gymnastics 8B 4 9yrs 8.800 18 9.225 1 8.825 9 9.000 8 35.850 7
2009-01-09 Twistars Invitational 2009 Midnight Madness Gym Kinetics Sports Complex 4c 4 9 8.875 4 9.225 1 8.350 2 9.000 1 35.450 1
2008-12-13 St Nick Invite Gym Kinetics Sports Complex 5 4 All 8.500 62 9.000 14 8.800 29 9.300 6 35.600 19
2008-11-22 Thanksgiving Classic Gym Kinetics Gymnastics 6 4 Ch 9+ 8.950 6T 9.300 1 7.700 23 8.800 8T 34.750 10

www.lazysuits.com